Time;durP1;ratioP1;P1;durP2;ratioP2;P2;SDS_P1;SDS_P2;PMS_P1;PMS_P2;Temp;Humidity;BMP_temperature;BMP_pressure;BME280_temperature;BME280_humidity;BME280_pressure;Samples;Min_cycle;Max_cycle;Signal;HPM_P1;HPM_P2
2021/10/02 00:37:21;;;;;;;9.90;5.82;;;12.70;84.00;;;;;;5011603;28;20050;-87
2021/10/02 00:45:22;;;;;;;11.77;7.60;;;12.70;84.20;;;;;;5011898;28;20062;-86
2021/10/02 00:47:54;;;;;;;18.48;9.15;;;12.60;84.30;;;;;;5012255;28;20076;-86
2021/10/02 00:50:21;;;;;;;13.88;7.43;;;12.60;84.40;;;;;;4994134;28;20054;-87
2021/10/02 00:52:49;;;;;;;16.08;8.98;;;12.60;84.40;;;;;;5012488;28;20050;-87
2021/10/02 00:55:16;;;;;;;19.90;8.98;;;12.60;84.50;;;;;;5012123;28;20042;-87
2021/10/02 00:57:43;;;;;;;20.60;9.25;;;12.50;84.50;;;;;;4990354;28;20057;-86
2021/10/02 01:00:10;;;;;;;17.20;10.32;;;12.60;84.60;;;;;;5011826;28;20046;-86
2021/10/02 01:02:37;;;;;;;14.48;8.73;;;12.50;84.60;;;;;;5012202;28;20116;-86
2021/10/02 01:05:28;;;;;;;31.58;12.25;;;12.50;84.70;;;;;;5011775;28;20054;-86
2021/10/02 01:08:13;;;;;;;22.80;11.38;;;12.50;84.70;;;;;;5012178;28;20116;-86
2021/10/02 01:10:43;;;;;;;23.10;12.35;;;12.50;84.80;;;;;;5010928;28;20084;-86
2021/10/02 01:13:41;;;;;;;31.08;13.45;;;12.50;84.90;;;;;;5011680;28;20461;-87
2021/10/02 01:16:21;;;;;;;29.08;13.68;;;12.50;85.00;;;;;;5011611;28;20037;-87
2021/10/02 01:19:24;;;;;;;22.65;14.57;;;12.50;85.10;;;;;;5011415;28;20058;-86
2021/10/02 01:22:14;;;;;;;24.05;13.00;;;12.50;85.20;;;;;;4989755;28;20453;-86
2021/10/02 01:25:05;;;;;;;19.63;12.32;;;12.60;85.30;;;;;;5011715;28;20050;-86
2021/10/02 01:27:59;;;;;;;23.77;14.32;;;12.60;85.30;;;;;;5011686;28;20041;-87
2021/10/02 01:33:51;;;;;;;20.45;14.15;;;12.60;85.40;;;;;;4963855;28;20097;-86
2021/10/02 01:47:16;;;;;;;29.63;14.30;;;12.70;85.50;;;;;;4965030;28;20046;-87
2021/10/02 01:49:55;;;;;;;24.02;13.13;;;12.70;85.50;;;;;;4955719;28;20055;-87
2021/10/02 01:52:27;;;;;;;19.05;12.50;;;12.70;85.40;;;;;;4954925;28;20508;-87
2021/10/02 01:54:56;;;;;;;33.92;15.10;;;12.70;85.40;;;;;;4955218;28;20051;-87
2021/10/02 01:57:34;;;;;;;22.30;12.05;;;12.70;85.40;;;;;;4955232;28;20051;-87
2021/10/02 02:00:02;;;;;;;18.38;12.45;;;12.70;85.40;;;;;;4955049;28;20108;-86
2021/10/02 02:02:33;;;;;;;26.67;12.10;;;12.70;85.40;;;;;;4935648;29;20043;-87
2021/10/02 02:05:01;;;;;;;24.58;12.35;;;12.70;85.40;;;;;;4962850;28;20511;-87
2021/10/02 02:07:28;;;;;;;23.00;12.60;;;12.70;85.40;;;;;;4955378;28;20039;-87
2021/10/02 02:09:57;;;;;;;19.48;11.65;;;12.80;85.40;;;;;;4972831;28;20096;-88
2021/10/02 02:12:32;;;;;;;15.18;11.10;;;12.80;85.40;;;;;;5011112;28;20045;-87
2021/10/02 02:15:08;;;;;;;13.32;9.95;;;12.80;85.30;;;;;;5011409;28;20426;-87
2021/10/02 02:17:39;;;;;;;18.42;11.32;;;12.80;85.20;;;;;;4996279;28;20100;-87
2021/10/02 02:20:08;;;;;;;13.52;10.27;;;12.80;85.20;;;;;;5011207;28;20565;-87
2021/10/02 02:22:36;;;;;;;19.58;11.23;;;12.70;85.10;;;;;;4993904;28;20495;-87
2021/10/02 02:25:05;;;;;;;14.27;9.68;;;12.80;85.10;;;;;;4993846;28;20049;-86
2021/10/02 02:27:32;;;;;;;20.38;10.27;;;12.70;85.00;;;;;;4993617;28;20042;-87
2021/10/02 02:29:59;;;;;;;21.65;10.77;;;12.70;85.00;;;;;;5011302;28;20510;-86
2021/10/02 02:32:26;;;;;;;16.55;9.40;;;12.70;84.90;;;;;;5010911;28;20042;-87
2021/10/02 02:34:54;;;;;;;13.82;9.50;;;12.70;84.90;;;;;;5014013;28;20049;-87
2021/10/02 02:37:21;;;;;;;12.32;9.43;;;12.60;84.90;;;;;;5014460;28;20774;-86
2021/10/02 02:39:47;;;;;;;12.43;9.85;;;12.70;84.80;;;;;;5014671;28;20104;-87
2021/10/02 02:42:15;;;;;;;16.45;9.70;;;12.60;84.80;;;;;;4996826;28;20045;-86
2021/10/02 02:44:41;;;;;;;13.30;9.38;;;12.60;84.80;;;;;;5014657;28;20049;-86
2021/10/02 02:47:14;;;;;;;14.13;9.27;;;12.60;84.70;;;;;;5014290;28;20046;-87
2021/10/02 02:49:59;;;;;;;12.77;9.53;;;12.60;84.70;;;;;;5012823;28;20097;-86
2021/10/02 02:53:18;;;;;;;13.40;9.48;;;12.60;84.70;;;;;;5014367;28;20112;-87
2021/10/02 02:55:50;;;;;;;11.40;9.00;;;12.60;84.60;;;;;;4954333;29;20087;-87
2021/10/02 02:58:19;;;;;;;20.05;10.15;;;12.60;84.50;;;;;;4953362;29;20047;-86
2021/10/02 03:00:55;;;;;;;13.10;9.65;;;12.50;84.50;;;;;;4953604;29;20551;-86
2021/10/02 03:03:31;;;;;;;21.77;9.27;;;12.50;84.50;;;;;;4953446;29;20053;-87
2021/10/02 03:06:03;;;;;;;14.82;8.80;;;12.50;84.50;;;;;;4953305;29;20047;-86
2021/10/02 03:08:37;;;;;;;13.23;9.07;;;12.40;84.50;;;;;;4938446;29;20043;-86
2021/10/02 03:11:05;;;;;;;12.50;8.25;;;12.40;84.50;;;;;;4953792;29;20066;-86
2021/10/02 03:13:37;;;;;;;13.93;8.35;;;12.50;84.60;;;;;;4953796;29;20453;-86
2021/10/02 03:16:09;;;;;;;15.07;10.27;;;12.40;84.60;;;;;;4953102;29;20043;-86
2021/10/02 03:18:41;;;;;;;20.85;10.65;;;12.40;84.60;;;;;;4953341;29;20489;-86
2021/10/02 03:21:09;;;;;;;26.30;12.10;;;12.40;84.60;;;;;;4953135;29;20051;-86
2021/10/02 03:23:37;;;;;;;18.42;10.88;;;12.40;84.60;;;;;;4953493;29;20472;-87
2021/10/02 03:26:05;;;;;;;27.55;13.32;;;12.40;84.70;;;;;;4953535;29;20047;-86
2021/10/02 03:28:33;;;;;;;22.42;12.25;;;12.40;84.80;;;;;;4952285;29;20047;-86
2021/10/02 03:31:00;;;;;;;21.05;12.00;;;12.40;84.80;;;;;;4973311;28;20056;-87
2021/10/02 03:33:28;;;;;;;27.67;13.93;;;12.40;84.90;;;;;;5013690;28;20045;-87
2021/10/02 03:35:55;;;;;;;23.58;13.88;;;12.40;84.90;;;;;;5013124;28;20399;-87
2021/10/02 03:38:23;;;;;;;20.85;12.77;;;12.40;84.90;;;;;;5013397;28;20056;-87
2021/10/02 03:40:57;;;;;;;20.08;12.32;;;12.40;85.00;;;;;;5013998;28;20050;-87
2021/10/02 03:43:29;;;;;;;15.65;11.75;;;12.50;84.90;;;;;;4995784;28;20053;-87
2021/10/02 03:45:56;;;;;;;18.38;11.88;;;12.40;84.90;;;;;;5012915;28;20076;-86
2021/10/02 03:48:24;;;;;;;21.15;12.48;;;12.50;85.00;;;;;;5013051;28;20537;-87
2021/10/02 03:50:51;;;;;;;19.92;12.85;;;12.50;85.00;;;;;;4996021;28;20073;-86
2021/10/02 03:53:18;;;;;;;21.38;13.63;;;12.50;85.00;;;;;;5013393;28;20125;-86
2021/10/02 03:55:44;;;;;;;22.42;14.45;;;12.50;85.00;;;;;;5013463;28;20057;-87
2021/10/02 03:58:12;;;;;;;18.75;11.98;;;12.50;85.10;;;;;;5012442;28;20566;-85
2021/10/02 04:00:38;;;;;;;21.38;12.75;;;12.50;85.10;;;;;;5013221;28;20045;-87
2021/10/02 04:03:06;;;;;;;21.55;13.07;;;12.50;85.10;;;;;;5013123;28;20046;-86
2021/10/02 04:05:32;;;;;;;20.77;12.40;;;12.50;85.10;;;;;;5012661;28;20049;-86
2021/10/02 04:07:59;;;;;;;20.48;12.48;;;12.50;85.10;;;;;;5013492;28;20053;-86
2021/10/02 04:10:26;;;;;;;18.77;10.95;;;12.50;85.20;;;;;;5010727;28;20473;-87
2021/10/02 04:12:53;;;;;;;25.02;12.75;;;12.50;85.20;;;;;;5012160;28;20050;-87
2021/10/02 04:15:20;;;;;;;19.23;12.77;;;12.50;85.20;;;;;;5012855;28;20046;-87
2021/10/02 04:17:47;;;;;;;21.27;11.00;;;12.50;85.30;;;;;;5012972;28;20046;-86
2021/10/02 04:20:14;;;;;;;29.73;14.55;;;12.50;85.30;;;;;;4994970;28;20458;-87
2021/10/02 04:22:41;;;;;;;20.90;12.65;;;12.50;85.20;;;;;;5013132;28;20466;-87
2021/10/02 04:25:08;;;;;;;25.92;14.23;;;12.50;85.30;;;;;;5012384;28;20046;-87
2021/10/02 04:27:35;;;;;;;19.13;12.43;;;12.50;85.30;;;;;;5011971;28;20100;-86
2021/10/02 04:30:02;;;;;;;25.50;15.02;;;12.50;85.30;;;;;;4991028;28;20042;-86
2021/10/02 04:32:29;;;;;;;25.67;15.65;;;12.50;85.40;;;;;;5012627;28;20072;-86
2021/10/02 04:34:56;;;;;;;27.73;16.20;;;12.50;85.40;;;;;;5008604;28;20103;-86
2021/10/02 04:37:23;;;;;;;23.17;15.10;;;12.50;85.50;;;;;;4994991;28;20057;-87
2021/10/02 04:39:50;;;;;;;23.27;15.75;;;12.50;85.50;;;;;;5012564;28;20470;-88
2021/10/02 04:42:16;;;;;;;27.60;16.00;;;12.50;85.60;;;;;;5011590;28;20400;-86
2021/10/02 04:44:43;;;;;;;28.45;14.10;;;12.50;85.60;;;;;;4994874;28;20096;-88
2021/10/02 04:47:12;;;;;;;25.80;15.05;;;12.60;85.70;;;;;;5012467;28;20061;-86
2021/10/02 04:49:44;;;;;;;30.02;15.27;;;12.50;85.70;;;;;;5010860;28;20142;-86
2021/10/02 04:52:11;;;;;;;23.77;14.52;;;12.50;85.70;;;;;;5012188;28;20054;-86
2021/10/02 04:54:38;;;;;;;24.90;14.75;;;12.50;85.70;;;;;;5012035;28;20079;-86
2021/10/02 04:57:04;;;;;;;30.45;15.07;;;12.50;85.70;;;;;;5011013;28;20454;-86
2021/10/02 04:59:31;;;;;;;29.85;15.52;;;12.50;85.70;;;;;;5012180;28;20049;-86
2021/10/02 05:01:58;;;;;;;26.23;14.38;;;12.50;85.70;;;;;;5012888;28;20081;-86
2021/10/02 05:04:25;;;;;;;26.15;14.70;;;12.50;85.70;;;;;;5011552;28;20133;-86
2021/10/02 05:06:52;;;;;;;27.55;15.18;;;12.50;85.70;;;;;;4990382;28;20053;-86
2021/10/02 05:09:19;;;;;;;33.45;14.63;;;12.50;85.70;;;;;;5012073;28;20038;-86
2021/10/02 05:11:46;;;;;;;23.58;13.98;;;12.50;85.70;;;;;;5011427;28;20050;-86
2021/10/02 05:14:12;;;;;;;27.50;13.25;;;12.50;85.70;;;;;;5011614;28;20112;-85
2021/10/02 05:16:39;;;;;;;31.38;14.23;;;12.50;85.80;;;;;;5010334;28;20048;-86
2021/10/02 05:19:06;;;;;;;24.83;13.80;;;12.50;85.80;;;;;;4989865;28;20528;-85
2021/10/02 05:21:33;;;;;;;21.73;13.93;;;12.50;85.70;;;;;;5011796;28;20522;-85
2021/10/02 05:24:00;;;;;;;20.63;13.70;;;12.50;85.80;;;;;;5011906;28;20069;-86
2021/10/02 05:26:27;;;;;;;26.20;14.25;;;12.50;85.80;;;;;;5011296;28;20054;-86
2021/10/02 05:28:54;;;;;;;26.95;16.23;;;12.40;85.80;;;;;;5012253;28;20049;-86
2021/10/02 05:31:20;;;;;;;22.30;15.43;;;12.40;85.80;;;;;;5011769;28;20050;-85
2021/10/02 05:33:47;;;;;;;22.02;14.20;;;12.40;85.80;;;;;;5011295;28;20042;-85
2021/10/02 05:36:15;;;;;;;22.98;15.15;;;12.40;85.90;;;;;;5011571;28;20061;-85
2021/10/02 05:38:41;;;;;;;19.60;13.57;;;12.40;85.90;;;;;;5014553;28;20502;-85
2021/10/02 05:41:12;;;;;;;30.27;14.13;;;12.40;85.90;;;;;;5010984;28;20053;-86
2021/10/02 05:43:39;;;;;;;24.80;14.77;;;12.40;85.90;;;;;;5011914;28;20046;-86
2021/10/02 05:46:06;;;;;;;24.73;15.25;;;12.40;85.90;;;;;;5011433;28;20057;-85
2021/10/02 05:48:33;;;;;;;28.83;15.77;;;12.40;85.90;;;;;;5011372;28;20084;-85
2021/10/02 05:51:00;;;;;;;32.13;17.30;;;12.40;85.90;;;;;;5011793;28;20104;-85
2021/10/02 05:53:27;;;;;;;29.85;15.35;;;12.40;85.90;;;;;;5011557;28;20473;-85
2021/10/02 05:55:54;;;;;;;25.88;15.93;;;12.40;86.00;;;;;;5011434;28;20054;-85
2021/10/02 05:58:20;;;;;;;26.25;14.85;;;12.40;86.00;;;;;;5011444;28;20092;-86
2021/10/02 06:00:47;;;;;;;27.67;15.55;;;12.40;86.00;;;;;;5011409;28;20157;-85
2021/10/02 06:03:14;;;;;;;32.25;14.32;;;12.40;86.10;;;;;;5011101;28;20042;-86
2021/10/02 06:05:41;;;;;;;42.08;19.38;;;12.40;86.10;;;;;;5011253;28;20054;-87
2021/10/02 06:08:08;;;;;;;29.40;17.80;;;12.40;86.10;;;;;;5011359;28;20049;-85
2021/10/02 06:10:35;;;;;;;26.27;17.17;;;12.40;86.10;;;;;;5014898;28;20107;-85
2021/10/02 06:13:02;;;;;;;22.95;15.65;;;12.40;86.10;;;;;;5015071;28;20041;-86
2021/10/02 06:15:29;;;;;;;31.23;16.02;;;12.40;86.20;;;;;;5015004;28;20104;-87
2021/10/02 06:17:56;;;;;;;25.98;16.02;;;12.40;86.20;;;;;;5014782;28;20104;-86
2021/10/02 06:20:24;;;;;;;27.08;16.05;;;12.50;86.20;;;;;;5014897;28;20058;-85
2021/10/02 06:22:52;;;;;;;25.15;15.20;;;12.40;86.20;;;;;;5015490;28;20458;-85
2021/10/02 06:25:19;;;;;;;26.48;15.70;;;12.50;86.30;;;;;;5014104;28;20050;-85
2021/10/02 06:27:46;;;;;;;27.70;15.60;;;12.50;86.30;;;;;;5014966;28;20053;-86
2021/10/02 06:30:13;;;;;;;30.15;16.63;;;12.50;86.30;;;;;;5014780;28;20037;-87
2021/10/02 06:32:40;;;;;;;30.33;17.08;;;12.50;86.30;;;;;;5014634;28;20049;-86
2021/10/02 06:35:08;;;;;;;30.05;18.25;;;12.50;86.40;;;;;;5014047;28;20464;-86
2021/10/02 06:37:35;;;;;;;34.40;19.25;;;12.50;86.40;;;;;;5014136;28;20089;-86
2021/10/02 06:40:03;;;;;;;37.97;20.77;;;12.50;86.50;;;;;;5014310;28;20498;-86
2021/10/02 06:42:30;;;;;;;38.90;19.30;;;12.50;86.50;;;;;;5014559;28;20054;-86
2021/10/02 06:44:57;;;;;;;42.88;21.17;;;12.50;86.50;;;;;;5014263;28;20041;-86
2021/10/02 06:47:24;;;;;;;47.95;18.65;;;12.60;86.50;;;;;;5014071;28;20096;-87
2021/10/02 06:49:56;;;;;;;40.33;19.52;;;12.60;86.50;;;;;;5015058;28;20049;-85
2021/10/02 06:52:25;;;;;;;30.38;16.30;;;12.60;86.60;;;;;;5013721;28;20461;-86
2021/10/02 06:54:52;;;;;;;28.88;15.63;;;12.60;86.60;;;;;;5013856;28;20092;-86
2021/10/02 06:57:20;;;;;;;28.77;16.17;;;12.60;86.60;;;;;;5014195;28;20050;-86
2021/10/02 06:59:47;;;;;;;31.23;14.70;;;12.60;86.60;;;;;;5014287;28;20502;-85
2021/10/02 07:02:15;;;;;;;38.67;17.02;;;12.60;86.60;;;;;;5013665;28;20049;-87
2021/10/02 07:04:44;;;;;;;32.47;16.45;;;12.70;86.60;;;;;;5014620;28;20073;-84
2021/10/02 07:07:11;;;;;;;32.97;15.98;;;12.70;86.60;;;;;;5013622;28;20449;-83
2021/10/02 07:09:38;;;;;;;25.23;14.25;;;12.70;86.50;;;;;;5013745;28;20102;-84
2021/10/02 07:12:05;;;;;;;27.77;13.07;;;12.70;86.50;;;;;;5013858;28;20050;-86
2021/10/02 07:14:32;;;;;;;22.90;13.10;;;12.70;86.60;;;;;;5014184;28;20041;-85
2021/10/02 07:16:59;;;;;;;30.42;14.77;;;12.80;86.60;;;;;;5014093;28;20050;-86
2021/10/02 07:19:26;;;;;;;32.38;15.88;;;12.80;86.60;;;;;;5013440;28;20092;-86
2021/10/02 07:21:52;;;;;;;42.30;16.52;;;12.80;86.60;;;;;;5013576;28;20084;-85
2021/10/02 07:24:20;;;;;;;24.08;13.90;;;12.80;86.60;;;;;;5013529;28;20088;-85
2021/10/02 07:26:47;;;;;;;27.42;13.48;;;12.80;86.60;;;;;;5013854;28;20092;-86
2021/10/02 07:29:14;;;;;;;32.97;13.95;;;12.90;86.60;;;;;;5013641;28;20050;-85
2021/10/02 07:31:42;;;;;;;42.65;16.70;;;12.90;86.50;;;;;;5011882;28;20045;-87
2021/10/02 07:34:09;;;;;;;31.38;12.30;;;12.90;86.50;;;;;;5013626;28;20050;-85
2021/10/02 07:36:36;;;;;;;23.15;9.77;;;12.90;86.50;;;;;;5013131;28;20132;-85
2021/10/02 07:39:03;;;;;;;21.77;10.13;;;12.90;86.50;;;;;;5013130;28;20099;-85
2021/10/02 07:41:32;;;;;;;23.67;10.00;;;12.90;86.40;;;;;;5013718;28;20506;-85
2021/10/02 07:44:03;;;;;;;28.67;11.98;;;12.90;86.40;;;;;;5010378;28;20498;-85
2021/10/02 07:46:31;;;;;;;31.05;11.25;;;12.90;86.30;;;;;;5013065;28;20103;-84
2021/10/02 07:49:00;;;;;;;30.15;10.88;;;12.90;86.30;;;;;;5013330;28;20526;-85
2021/10/02 07:51:27;;;;;;;30.50;9.90;;;12.90;86.30;;;;;;5013017;28;20053;-86
2021/10/02 07:53:55;;;;;;;29.33;9.55;;;12.90;86.30;;;;;;4995376;28;20042;-85
2021/10/02 07:56:22;;;;;;;28.42;10.35;;;12.90;86.30;;;;;;5013171;28;20046;-85
2021/10/02 07:58:51;;;;;;;26.58;10.23;;;13.00;86.30;;;;;;5013683;28;20050;-86
2021/10/02 08:01:19;;;;;;;31.20;10.98;;;13.00;86.40;;;;;;5012930;28;20060;-85
2021/10/02 08:03:48;;;;;;;21.48;10.43;;;13.00;86.30;;;;;;5012715;28;20054;-85
2021/10/02 08:06:37;;;;;;;28.42;10.50;;;13.00;86.30;;;;;;5012141;28;20081;-86
2021/10/02 08:09:09;;;;;;;27.73;10.73;;;13.00;86.30;;;;;;5012442;28;20474;-86
2021/10/02 08:11:37;;;;;;;29.63;11.35;;;13.00;86.30;;;;;;5013699;28;20576;-86
2021/10/02 08:14:06;;;;;;;24.10;12.85;;;13.00;86.30;;;;;;5020591;28;20049;-85
2021/10/02 08:16:36;;;;;;;19.48;11.32;;;13.10;86.30;;;;;;5007486;28;20050;-85
2021/10/02 08:19:07;;;;;;;26.42;12.63;;;13.10;86.30;;;;;;5000774;28;20042;-86
2021/10/02 08:21:38;;;;;;;27.50;11.80;;;13.10;86.30;;;;;;5002127;28;20120;-85
2021/10/02 08:24:06;;;;;;;29.30;12.57;;;13.10;86.30;;;;;;5008355;28;20052;-85
2021/10/02 08:26:33;;;;;;;23.95;13.23;;;13.10;86.30;;;;;;4993862;28;20045;-84
2021/10/02 08:29:02;;;;;;;27.92;12.23;;;13.10;86.30;;;;;;4996993;28;20097;-83
2021/10/02 08:31:29;;;;;;;35.67;12.90;;;13.20;86.50;;;;;;5005800;28;20053;-87
2021/10/02 08:34:16;;;;;;;24.80;12.40;;;13.20;86.60;;;;;;4998381;28;20046;-86
2021/10/02 08:36:43;;;;;;;24.70;11.60;;;13.30;86.50;;;;;;4997940;28;20120;-86
2021/10/02 08:39:11;;;;;;;25.10;11.27;;;13.30;86.50;;;;;;4997180;28;20037;-85
2021/10/02 08:41:39;;;;;;;30.63;11.05;;;13.30;86.50;;;;;;5006899;28;20052;-85
2021/10/02 08:44:06;;;;;;;18.10;9.95;;;13.40;86.40;;;;;;4976892;28;20133;-84
2021/10/02 08:46:33;;;;;;;25.42;10.55;;;13.40;86.40;;;;;;5005833;28;20050;-84
2021/10/02 08:49:22;;;;;;;23.73;10.40;;;13.40;86.30;;;;;;4999001;28;20096;-84
2021/10/02 08:51:50;;;;;;;20.63;10.05;;;13.40;86.20;;;;;;4999055;28;20193;-85
2021/10/02 08:54:19;;;;;;;28.90;11.02;;;13.40;86.20;;;;;;5005442;28;20069;-84
2021/10/02 08:56:48;;;;;;;19.35;9.98;;;13.40;86.00;;;;;;4993834;28;20054;-84
2021/10/02 08:59:16;;;;;;;17.98;9.00;;;13.40;86.00;;;;;;4993349;28;20050;-85
2021/10/02 09:01:43;;;;;;;22.17;9.82;;;13.40;86.00;;;;;;4995994;28;20535;-85
2021/10/02 09:04:10;;;;;;;22.05;10.68;;;13.50;86.00;;;;;;4995440;28;20043;-84
2021/10/02 09:06:38;;;;;;;23.75;9.77;;;13.50;86.00;;;;;;4995719;28;20097;-83
2021/10/02 09:09:07;;;;;;;23.27;10.30;;;13.50;86.20;;;;;;4995685;28;20081;-84
2021/10/02 09:11:35;;;;;;;19.17;10.25;;;13.60;86.20;;;;;;4991993;28;20046;-86
2021/10/02 09:14:03;;;;;;;16.65;9.63;;;13.60;86.40;;;;;;4994680;28;20046;-86
2021/10/02 09:16:30;;;;;;;18.13;8.38;;;13.70;86.40;;;;;;4996465;28;20054;-86
2021/10/02 09:18:58;;;;;;;16.33;8.50;;;13.80;86.20;;;;;;4995219;28;20078;-84
2021/10/02 09:21:25;;;;;;;19.92;8.95;;;13.90;86.10;;;;;;4995686;28;20050;-87
2021/10/02 09:23:51;;;;;;;15.27;8.20;;;13.90;86.00;;;;;;4994264;28;20104;-85
2021/10/02 09:26:40;;;;;;;15.45;7.93;;;14.00;86.00;;;;;;4992955;28;20053;-85
2021/10/02 09:29:07;;;;;;;14.52;7.88;;;14.10;85.90;;;;;;5006795;28;20054;-86
2021/10/02 09:31:34;;;;;;;21.77;7.53;;;14.20;85.60;;;;;;4996300;28;20054;-85
2021/10/02 09:34:02;;;;;;;14.32;6.45;;;14.30;85.30;;;;;;4995496;28;20051;-87
2021/10/02 09:36:29;;;;;;;11.88;5.93;;;14.40;85.10;;;;;;4995111;28;20076;-86
2021/10/02 09:38:56;;;;;;;10.93;5.60;;;14.40;84.80;;;;;;4994675;28;20605;-85
2021/10/02 09:41:29;;;;;;;11.20;4.88;;;14.40;84.60;;;;;;4991360;28;20050;-84
2021/10/02 09:43:57;;;;;;;13.60;5.18;;;14.40;84.10;;;;;;4994362;28;20096;-84
2021/10/02 09:46:41;;;;;;;12.75;6.22;;;14.50;83.90;;;;;;4998855;28;20054;-85
2021/10/02 09:49:08;;;;;;;10.50;5.00;;;14.50;84.00;;;;;;4999451;28;20396;-85
2021/10/02 09:51:40;;;;;;;11.43;4.40;;;14.60;83.80;;;;;;4999248;28;20105;-85
2021/10/02 09:54:39;;;;;;;10.90;4.40;;;14.60;83.50;;;;;;4999088;28;20065;-85
2021/10/02 09:57:14;;;;;;;9.93;4.15;;;14.70;83.30;;;;;;4999227;28;20461;-85
2021/10/02 09:59:41;;;;;;;11.55;4.20;;;14.70;82.90;;;;;;4996464;28;20046;-85
2021/10/02 10:02:17;;;;;;;12.32;4.63;;;14.70;82.80;;;;;;4996620;28;20046;-85
2021/10/02 10:04:52;;;;;;;15.85;4.07;;;14.70;82.70;;;;;;4999217;28;20085;-87
2021/10/02 10:07:19;;;;;;;10.20;3.95;;;14.70;82.70;;;;;;4998974;28;20454;-86
2021/10/02 10:10:10;;;;;;;11.90;4.15;;;14.80;82.50;;;;;;5002248;28;20056;-84
2021/10/02 10:12:39;;;;;;;12.93;4.05;;;14.70;82.30;;;;;;5007018;28;20101;-85
2021/10/02 10:15:25;;;;;;;12.52;3.45;;;14.70;81.80;;;;;;4998788;28;20054;-82
2021/10/02 10:17:52;;;;;;;9.38;3.85;;;14.70;81.90;;;;;;4997496;28;20050;-84
2021/10/02 10:20:28;;;;;;;18.00;4.07;;;14.80;82.00;;;;;;4995731;28;20047;-84
2021/10/02 10:22:57;;;;;;;10.07;3.53;;;14.80;82.10;;;;;;4998792;28;20050;-84
2021/10/02 10:25:24;;;;;;;12.38;3.38;;;14.80;82.20;;;;;;4998885;28;20407;-83
2021/10/02 10:27:52;;;;;;;13.45;3.20;;;14.80;82.00;;;;;;4998988;28;20043;-84
2021/10/02 10:30:23;;;;;;;10.98;2.63;;;14.90;81.80;;;;;;4998435;28;20104;-85
2021/10/02 10:33:08;;;;;;;7.60;2.83;;;14.90;81.80;;;;;;4996912;28;20058;-85
2021/10/02 10:35:36;;;;;;;15.68;4.30;;;14.90;81.40;;;;;;4994995;28;20116;-85
2021/10/02 10:38:05;;;;;;;16.98;5.47;;;14.90;81.20;;;;;;4996942;28;20104;-84
2021/10/02 10:40:33;;;;;;;27.02;6.45;;;14.90;81.00;;;;;;4993891;28;20471;-84
2021/10/02 10:43:00;;;;;;;16.40;4.07;;;14.90;80.90;;;;;;4998394;28;20046;-84
2021/10/02 10:45:28;;;;;;;16.10;5.47;;;14.90;80.70;;;;;;4998017;28;20054;-85
2021/10/02 10:47:58;;;;;;;14.48;4.93;;;14.90;80.60;;;;;;4995732;28;20050;-85
2021/10/02 10:50:26;;;;;;;15.52;3.90;;;15.00;80.00;;;;;;5010163;28;20046;-85
2021/10/02 10:52:58;;;;;;;17.13;4.68;;;15.00;79.90;;;;;;4998361;28;20108;-85
2021/10/02 10:55:25;;;;;;;15.93;4.88;;;15.00;79.60;;;;;;4997430;28;20046;-85
2021/10/02 10:57:57;;;;;;;26.98;7.38;;;15.00;79.70;;;;;;4998143;28;20093;-85
2021/10/02 11:00:30;;;;;;;11.48;3.85;;;15.00;79.90;;;;;;4997697;28;20042;-87
2021/10/02 11:03:04;;;;;;;17.70;4.72;;;15.10;79.50;;;;;;4997302;28;20132;-84
2021/10/02 11:05:37;;;;;;;12.18;3.45;;;15.10;79.50;;;;;;4993774;28;20434;-83
2021/10/02 11:08:21;;;;;;;20.88;4.68;;;15.10;79.50;;;;;;4996238;28;20101;-88
2021/10/02 11:10:50;;;;;;;;;;;15.20;79.60;;;;;;4998624;28;20054;-86
2021/10/02 11:13:29;;;;;;;11.35;3.00;;;15.20;79.70;;;;;;4997535;28;19972;-86
2021/10/02 11:15:56;;;;;;;11.93;3.10;;;15.20;79.40;;;;;;4997907;28;20050;-84
2021/10/02 11:18:43;;;;;;;10.90;3.05;;;15.30;79.50;;;;;;4997966;28;20050;-87
2021/10/02 11:21:14;;;;;;;10.35;3.00;;;15.30;79.10;;;;;;4997677;28;20053;-85
2021/10/02 11:24:03;;;;;;;13.95;3.20;;;15.30;78.70;;;;;;4994745;28;20046;-84
2021/10/02 11:26:43;;;;;;;15.75;2.40;;;15.30;78.90;;;;;;4994875;28;20134;-86
2021/10/02 11:29:30;;;;;;;12.15;2.15;;;15.30;78.40;;;;;;5008624;28;20058;-85
2021/10/02 11:32:22;;;;;;;10.35;2.60;;;15.30;78.40;;;;;;4997770;28;20100;-85
2021/10/02 11:35:09;;;;;;;11.52;2.65;;;15.30;78.60;;;;;;4997517;28;20093;-85
2021/10/02 11:37:57;;;;;;;14.60;2.50;;;15.40;78.70;;;;;;4994438;28;20084;-84
2021/10/02 11:40:36;;;;;;;14.02;3.10;;;15.40;78.90;;;;;;4997288;28;20136;-86
2021/10/02 11:43:12;;;;;;;15.70;2.55;;;15.40;78.80;;;;;;4997071;28;20046;-85
2021/10/02 11:45:45;;;;;;;11.70;2.83;;;15.30;78.40;;;;;;4997428;28;20113;-85
2021/10/02 11:48:19;;;;;;;11.73;2.23;;;15.30;78.20;;;;;;4997239;28;20052;-85
2021/10/02 11:51:12;;;;;;;15.73;2.17;;;15.30;78.20;;;;;;4994985;28;20099;-85
2021/10/02 11:53:51;;;;;;;10.68;2.22;;;15.20;78.20;;;;;;4993780;28;20613;-85
2021/10/02 11:56:23;;;;;;;13.38;2.30;;;15.20;78.20;;;;;;4994091;28;20101;-87
2021/10/02 11:58:52;;;;;;;13.48;2.83;;;15.30;78.30;;;;;;4990346;28;20491;-85
2021/10/02 12:01:24;;;;;;;15.00;2.95;;;15.30;78.40;;;;;;4997054;28;20047;-88
2021/10/02 12:04:02;;;;;;;11.50;2.38;;;15.20;78.00;;;;;;4996888;28;20042;-84
2021/10/02 12:06:31;;;;;;;10.95;2.17;;;15.20;78.00;;;;;;4997584;28;20042;-85
2021/10/02 12:08:59;;;;;;;10.32;2.30;;;15.20;78.40;;;;;;5008209;28;20105;-85
2021/10/02 12:11:28;;;;;;;13.63;3.00;;;15.20;78.30;;;;;;4992612;28;20046;-85
2021/10/02 12:13:57;;;;;;;11.65;2.20;;;15.20;78.30;;;;;;4996878;28;20577;-85
2021/10/02 12:16:30;;;;;;;12.00;2.60;;;15.20;78.40;;;;;;4996668;28;20057;-85
2021/10/02 12:19:08;;;;;;;13.15;3.00;;;15.20;78.20;;;;;;4996689;28;20529;-83
2021/10/02 12:21:42;;;;;;;15.02;3.58;;;15.20;78.30;;;;;;4996561;28;20093;-86
2021/10/02 12:24:21;;;;;;;15.07;2.40;;;15.20;78.20;;;;;;4996853;28;20045;-86
2021/10/02 12:26:55;;;;;;;12.75;2.78;;;15.10;78.10;;;;;;4994214;28;20046;-85
2021/10/02 12:29:31;;;;;;;11.75;2.67;;;15.20;78.10;;;;;;4993282;28;20079;-84
2021/10/02 12:32:20;;;;;;;14.68;2.58;;;15.10;77.90;;;;;;5007856;28;20045;-85
2021/10/02 12:34:55;;;;;;;12.23;2.90;;;15.20;77.90;;;;;;4996167;28;20295;-87
2021/10/02 12:37:33;;;;;;;10.35;2.65;;;15.10;77.90;;;;;;4996197;28;20046;-83
2021/10/02 12:40:05;;;;;;;13.23;3.03;;;15.20;77.90;;;;;;4996586;28;20053;-86
2021/10/02 12:42:38;;;;;;;14.82;3.17;;;15.10;78.00;;;;;;4996243;28;20046;-85
2021/10/02 12:45:19;;;;;;;11.90;2.33;;;15.10;78.10;;;;;;4993649;28;20104;-85
2021/10/02 12:47:51;;;;;;;12.38;3.30;;;15.00;77.80;;;;;;5007649;28;20133;-86
2021/10/02 12:50:25;;;;;;;11.13;2.85;;;15.10;77.90;;;;;;4993276;28;20050;-87
2021/10/02 12:52:53;;;;;;;13.50;2.75;;;15.00;78.00;;;;;;4996100;28;20050;-87
2021/10/02 12:55:20;;;;;;;13.02;2.67;;;15.00;78.10;;;;;;4995724;28;20392;-84
2021/10/02 12:57:48;;;;;;;13.02;2.60;;;15.00;78.00;;;;;;4999088;28;20466;-84
2021/10/02 13:00:19;;;;;;;10.68;2.60;;;15.00;78.20;;;;;;5005390;28;20042;-85
2021/10/02 13:02:49;;;;;;;12.07;2.45;;;15.00;78.20;;;;;;4993452;28;20128;-85
2021/10/02 13:05:22;;;;;;;15.77;2.50;;;15.00;78.20;;;;;;4993386;28;20042;-85
2021/10/02 13:07:55;;;;;;;15.05;2.83;;;15.00;78.00;;;;;;4995908;28;20053;-84
2021/10/02 13:10:37;;;;;;;11.98;2.63;;;15.00;77.90;;;;;;4995306;28;20093;-92
2021/10/02 13:13:13;;;;;;;14.05;2.78;;;15.00;77.80;;;;;;4995619;28;20042;-85
2021/10/02 13:15:52;;;;;;;12.73;2.97;;;15.10;77.90;;;;;;4995671;28;20046;-84
2021/10/02 13:18:27;;;;;;;11.55;2.50;;;15.10;78.00;;;;;;4995192;28;20037;-85
2021/10/02 13:20:56;;;;;;;10.68;2.70;;;15.00;77.90;;;;;;4994576;28;20506;-84
2021/10/02 13:23:32;;;;;;;12.25;2.55;;;15.00;77.60;;;;;;4992737;28;24993;-84
2021/10/02 13:26:01;;;;;;;10.88;2.42;;;;;;;;;;5006798;28;20069;-86
2021/10/02 13:28:32;;;;;;;16.40;4.28;;;15.00;78.00;;;;;;4990537;28;20615;-86
2021/10/02 13:31:17;;;;;;;10.82;2.65;;;15.10;77.90;;;;;;4995541;28;20134;-85
2021/10/02 13:33:47;;;;;;;8.65;2.42;;;15.10;77.70;;;;;;4995357;28;20129;-87
2021/10/02 13:36:21;;;;;;;12.48;2.30;;;15.10;77.80;;;;;;4995472;28;20046;-87
2021/10/02 13:38:48;;;;;;;8.85;2.22;;;15.10;77.80;;;;;;4993121;28;20050;-85
2021/10/02 13:41:18;;;;;;;8.85;2.28;;;15.20;77.80;;;;;;4993249;28;20104;-86
2021/10/02 13:44:03;;;;;;;10.48;2.38;;;15.20;77.80;;;;;;4995518;28;20061;-85
2021/10/02 13:46:37;;;;;;;8.93;2.30;;;15.20;78.20;;;;;;4996120;28;20050;-88
2021/10/02 13:49:07;;;;;;;13.05;2.92;;;15.20;78.10;;;;;;4995482;28;20061;-84